createdAt,value
2023-01-04T00:00:16.407Z,101574.66
2023-01-04T00:05:17.170Z,101559.97
2023-01-04T00:10:17.837Z,101558.03
2023-01-04T00:15:20.072Z,101560.44
2023-01-04T00:20:20.769Z,101551.66
2023-01-04T00:25:21.445Z,101546.22
2023-01-04T00:30:24.096Z,101538.31
2023-01-04T00:35:44.824Z,101542.50
2023-01-04T00:40:45.682Z,101541.59
2023-01-04T00:45:47.890Z,101530.56
2023-01-04T00:50:50.244Z,101520.47
2023-01-04T00:55:50.945Z,101523.00
2023-01-04T01:00:52.937Z,101520.22
2023-01-04T01:05:53.602Z,101513.00
2023-01-04T01:10:54.666Z,101512.75
2023-01-04T01:15:56.786Z,101503.16
2023-01-04T01:20:57.530Z,101484.09
2023-01-04T01:26:01.167Z,101500.25
2023-01-04T01:31:08.802Z,101486.06
2023-01-04T01:36:10.954Z,101485.25
2023-01-04T01:41:18.317Z,101485.00
2023-01-04T01:46:24.586Z,101476.44
2023-01-04T01:51:25.744Z,101478.09
2023-01-04T01:56:29.379Z,101464.06
2023-01-04T02:01:31.510Z,101457.97
2023-01-04T02:06:35.518Z,101459.69
2023-01-04T02:11:36.167Z,101456.13
2023-01-04T02:17:06.289Z,101449.97
2023-01-04T02:22:36.557Z,101440.53
2023-01-04T02:27:50.355Z,101433.47
2023-01-04T02:33:04.182Z,101424.00
2023-01-04T02:38:15.953Z,101410.75
2023-01-04T02:43:40.055Z,101399.88
2023-01-04T02:49:00.275Z,101391.00
2023-01-04T02:54:05.357Z,101392.81
2023-01-04T02:59:23.666Z,101380.94
2023-01-04T03:04:56.906Z,101367.16
2023-01-04T03:10:05.686Z,101362.75
2023-01-04T03:15:13.685Z,101353.50
2023-01-04T03:20:18.861Z,101343.16
2023-01-04T03:25:41.031Z,101336.28
2023-01-04T03:31:06.721Z,101326.84
2023-01-04T03:36:19.075Z,101318.44
2023-01-04T03:41:44.184Z,101308.97
2023-01-04T03:47:08.084Z,101311.38
2023-01-04T03:52:13.037Z,101289.94
2023-01-04T03:57:15.489Z,101280.38
2023-01-04T04:02:19.181Z,101259.84
2023-01-04T04:07:38.859Z,101252.25
2023-01-04T04:12:39.610Z,101241.19
2023-01-04T04:17:40.267Z,101248.34
2023-01-04T04:22:42.550Z,101237.41
2023-01-04T04:27:43.220Z,101232.38
2023-01-04T04:32:43.935Z,101206.53
2023-01-04T04:37:45.945Z,101207.56
2023-01-04T04:42:46.944Z,101200.78
2023-01-04T04:47:47.613Z,101194.78
2023-01-04T04:52:55.672Z,101188.69
2023-01-04T04:57:56.809Z,101188.63
2023-01-04T05:02:59.592Z,101178.47
2023-01-04T05:08:01.829Z,101165.38
2023-01-04T05:13:02.523Z,101169.06
2023-01-04T05:18:03.743Z,101152.59
2023-01-04T05:23:06.798Z,101147.50
2023-01-04T05:28:07.643Z,101149.69
2023-01-04T05:33:09.121Z,101123.84
2023-01-04T05:38:11.291Z,101110.94
2023-01-04T05:43:13.737Z,101107.50
2023-01-04T05:48:14.485Z,101109.31
2023-01-04T05:53:18.945Z,101104.16
2023-01-04T05:58:19.645Z,101101.66
2023-01-04T06:03:20.451Z,101081.78
2023-01-04T06:08:22.576Z,101070.66
2023-01-04T06:13:23.341Z,101054.13
2023-01-04T06:18:24.015Z,101051.66
2023-01-04T06:23:26.030Z,101044.19
2023-01-04T06:28:26.727Z,101039.88
2023-01-04T06:33:27.420Z,101028.72
2023-01-04T06:38:29.522Z,101004.69
2023-01-04T06:43:30.249Z,100997.81
2023-01-04T06:48:30.889Z,100993.03
2023-01-04T06:53:32.921Z,100993.91
2023-01-04T06:58:33.595Z,100989.59
2023-01-04T07:03:34.409Z,100981.78
2023-01-04T07:08:36.471Z,100973.09
2023-01-04T07:13:37.172Z,100963.69
2023-01-04T07:18:37.979Z,100966.38
2023-01-04T07:23:40.103Z,100956.22
2023-01-04T07:29:00.671Z,100947.56
2023-01-04T07:34:01.325Z,100954.53
2023-01-04T07:39:03.711Z,100943.41
2023-01-04T07:44:04.551Z,100942.75
2023-01-04T07:49:08.988Z,100945.53
2023-01-04T07:54:13.751Z,100947.38
2023-01-04T07:59:16.393Z,100952.63
2023-01-04T08:04:17.199Z,100955.41
2023-01-04T08:09:20.061Z,100952.88
2023-01-04T08:14:20.740Z,100935.72
2023-01-04T08:19:22.758Z,100933.19
2023-01-04T08:24:24.825Z,100903.81
2023-01-04T08:29:29.589Z,100893.50
2023-01-04T08:34:35.147Z,100877.91
2023-01-04T08:39:37.398Z,100852.13
2023-01-04T08:44:38.159Z,100833.16
2023-01-04T08:49:38.884Z,100826.28
2023-01-04T08:54:40.964Z,100812.63
2023-01-04T08:59:41.684Z,100816.06
2023-01-04T09:04:42.415Z,100806.56
2023-01-04T09:09:44.674Z,100803.94
2023-01-04T09:14:45.456Z,100803.09
2023-01-04T09:19:46.163Z,100803.03
2023-01-04T09:24:48.240Z,100790.19
2023-01-04T09:29:48.997Z,100785.03
2023-01-04T09:34:49.763Z,100784.19
2023-01-04T09:39:51.941Z,100786.78
2023-01-04T09:45:23.297Z,100783.34
2023-01-04T09:50:22.040Z,100727.22
2023-01-04T09:55:37.112Z,100745.31
2023-01-04T10:00:45.906Z,100730.66
2023-01-04T10:05:46.656Z,100722.91
2023-01-04T10:11:03.850Z,100725.50
2023-01-04T10:16:17.679Z,100713.41
2023-01-04T10:21:41.453Z,100684.94
2023-01-04T10:26:47.966Z,100678.00
2023-01-04T10:31:55.141Z,100678.03
2023-01-04T10:37:00.216Z,100665.94
2023-01-04T10:42:13.424Z,100692.72
2023-01-04T10:47:20.995Z,100653.81
2023-01-04T10:52:26.960Z,100659.00
2023-01-04T10:57:35.324Z,100642.63
2023-01-04T11:02:42.491Z,100612.38
2023-01-04T11:07:48.940Z,100625.34
2023-01-04T11:12:51.092Z,100601.09
2023-01-04T11:17:52.813Z,100580.34
2023-01-04T11:22:59.787Z,100572.53
2023-01-04T11:28:08.409Z,100584.63
2023-01-04T11:33:14.761Z,100580.28
2023-01-04T11:38:18.372Z,100566.44
2023-01-04T11:43:21.998Z,100564.63
2023-01-04T11:48:39.801Z,100568.94
2023-01-04T11:53:40.516Z,100564.56
2023-01-04T11:58:44.001Z,100552.38
2023-01-04T12:03:45.801Z,100521.19
2023-01-04T12:08:47.678Z,100518.69
2023-01-04T12:13:49.802Z,100523.97
2023-01-04T12:18:51.657Z,100527.38
2023-01-04T12:23:53.762Z,100504.97
2023-01-04T12:29:49.910Z,100481.66
2023-01-04T12:34:50.638Z,100477.38
2023-01-04T12:39:51.654Z,100499.81
2023-01-04T12:45:24.928Z,100488.41
2023-01-04T12:50:27.690Z,100451.31
2023-01-04T12:55:53.493Z,100459.97
2023-01-04T13:01:25.553Z,100420.13
2023-01-04T13:06:28.944Z,100419.31
2023-01-04T13:11:42.741Z,100420.22
2023-01-04T13:16:57.105Z,100413.31
2023-01-04T13:21:58.960Z,100414.94
2023-01-04T13:27:08.402Z,100401.81
2023-01-04T13:32:13.107Z,100393.97
2023-01-04T13:37:27.354Z,100388.59
2023-01-04T13:42:30.852Z,100374.69
2023-01-04T13:47:36.491Z,100365.91
2023-01-04T13:53:05.743Z,100349.28
2023-01-04T13:57:59.885Z,100336.09
2023-01-04T14:03:13.982Z,100303.59
2023-01-04T14:08:21.780Z,100316.59
2023-01-04T14:13:22.464Z,100325.78
2023-01-04T14:18:29.726Z,100318.59
2023-01-04T14:23:35.483Z,100321.97
2023-01-04T14:28:43.165Z,100327.09
2023-01-04T14:33:53.516Z,100317.50
2023-01-04T14:39:01.773Z,100295.19
2023-01-04T14:44:14.688Z,100267.75
2023-01-04T14:49:19.803Z,100285.09
2023-01-04T14:54:25.028Z,100298.84
2023-01-04T14:59:27.163Z,100301.97
2023-01-04T15:04:29.332Z,100314.03
2023-01-04T15:09:31.282Z,100318.25
2023-01-04T15:14:31.965Z,100308.66
2023-01-04T15:19:37.770Z,100295.44
2023-01-04T15:24:39.053Z,100292.22
2023-01-04T15:29:39.804Z,100285.31
2023-01-04T15:34:46.662Z,100267.84
2023-01-04T15:39:48.267Z,100262.75
2023-01-04T15:44:48.961Z,100254.75
2023-01-04T15:49:51.056Z,100268.66
2023-01-04T15:54:51.794Z,100258.91
2023-01-04T15:59:52.566Z,100251.22
2023-01-04T16:04:54.625Z,100238.34
2023-01-04T16:09:55.422Z,100246.97
2023-01-04T16:14:56.156Z,100228.56
2023-01-04T16:19:58.216Z,100229.53
2023-01-04T16:25:14.310Z,100216.50
2023-01-04T16:30:15.593Z,100212.88
2023-01-04T16:35:17.876Z,100198.78
2023-01-04T16:40:18.680Z,100183.94
2023-01-04T16:45:20.194Z,100174.44
2023-01-04T16:50:22.311Z,100163.00
2023-01-04T16:55:24.223Z,100160.16
2023-01-04T17:00:25.262Z,100190.44
2023-01-04T17:05:27.299Z,100163.09
2023-01-04T17:10:29.809Z,100146.38
2023-01-04T17:15:46.125Z,100148.97
2023-01-04T17:20:55.537Z,100146.94
2023-01-04T17:26:03.198Z,100159.72
2023-01-04T17:31:06.804Z,100159.56
2023-01-04T17:36:11.902Z,100165.66
2023-01-04T17:41:14.690Z,100162.94
2023-01-04T17:46:22.557Z,100147.03
2023-01-04T17:51:26.110Z,100124.69
2023-01-04T17:56:29.002Z,100120.13
2023-01-04T18:01:30.848Z,100099.09
2023-01-04T18:06:35.000Z,100091.09
2023-01-04T18:11:36.301Z,100102.59
2023-01-04T18:16:56.253Z,100093.41
2023-01-04T18:22:01.487Z,100087.44
2023-01-04T18:27:21.097Z,100083.91
2023-01-04T18:32:23.778Z,100081.06
2023-01-04T18:37:25.869Z,100075.81
2023-01-04T18:42:26.625Z,100075.44
2023-01-04T18:47:27.944Z,100064.72
2023-01-04T18:52:30.209Z,100061.81
2023-01-04T18:57:30.923Z,100062.53
2023-01-04T19:02:31.732Z,100032.75
2023-01-04T19:07:38.753Z,100032.13
2023-01-04T19:12:39.451Z,100037.72
2023-01-04T19:17:40.209Z,100032.31
2023-01-04T19:22:42.297Z,100049.50
2023-01-04T19:27:43.003Z,100017.78
2023-01-04T19:32:43.808Z,100007.72
2023-01-04T19:37:45.827Z,99990.94
2023-01-04T19:42:47.091Z,100005.28
2023-01-04T19:47:50.540Z,99984.53
2023-01-04T19:52:52.819Z,100001.09
2023-01-04T19:57:53.796Z,100002.28
2023-01-04T20:02:54.723Z,99974.25
2023-01-04T20:07:56.890Z,100005.84
2023-01-04T20:12:57.750Z,100005.53
2023-01-04T20:17:58.508Z,99996.97
2023-01-04T20:23:00.587Z,99977.03
2023-01-04T20:28:01.380Z,99985.75
2023-01-04T20:33:02.497Z,99984.91
2023-01-04T20:38:04.665Z,99979.88
2023-01-04T20:43:23.124Z,99985.88
2023-01-04T20:48:24.670Z,99980.88
2023-01-04T20:53:26.769Z,99996.00
2023-01-04T20:58:27.443Z,99997.91
2023-01-04T21:03:28.244Z,99960.63
2023-01-04T21:08:31.096Z,99952.91
2023-01-04T21:13:31.999Z,99968.25
2023-01-04T21:18:33.853Z,99944.13
2023-01-04T21:23:36.619Z,99908.91
2023-01-04T21:28:37.574Z,99930.44
2023-01-04T21:33:38.393Z,99940.91
2023-01-04T21:38:40.415Z,99940.16
2023-01-04T21:43:41.769Z,99938.72
2023-01-04T21:48:43.251Z,99911.22
2023-01-04T21:53:45.350Z,99918.63
2023-01-04T21:58:46.181Z,99904.84
2023-01-04T22:03:47.331Z,99906.28
2023-01-04T22:08:50.023Z,99885.97
2023-01-04T22:13:50.876Z,99887.16
2023-01-04T22:18:52.140Z,99882.47
2023-01-04T22:23:55.253Z,99891.69
2023-01-04T22:28:56.037Z,99885.53
2023-01-04T22:33:56.744Z,99902.81
2023-01-04T22:38:58.951Z,99869.84
2023-01-04T22:44:01.572Z,99869.78
2023-01-04T22:49:03.404Z,99865.34
2023-01-04T22:54:06.560Z,99859.09
2023-01-04T22:59:07.244Z,99849.38
2023-01-04T23:04:08.062Z,99846.03
2023-01-04T23:09:11.913Z,99848.63
2023-01-04T23:14:14.589Z,99839.97
2023-01-04T23:19:17.731Z,99849.47
2023-01-04T23:24:19.786Z,99882.84
2023-01-04T23:29:20.518Z,99854.88
2023-01-04T23:34:21.203Z,99863.00
2023-01-04T23:39:23.310Z,99856.34
2023-01-04T23:44:25.471Z,99859.94
2023-01-04T23:49:27.695Z,99853.75
2023-01-04T23:54:30.219Z,99849.56
2023-01-04T23:59:31.510Z,99837.25
